Time;durP1;ratioP1;P1;durP2;ratioP2;P2;SDS_P1;SDS_P2;PMS_P1;PMS_P2;Temp;Humidity;BMP_temperature;BMP_pressure;BME280_temperature;BME280_humidity;BME280_pressure;Samples;Min_cycle;Max_cycle;Signal;HPM_P1;HPM_P2
2023/10/04 00:02:03;;;;;;;31.55;29.95;;;;;;;9.11;100.00;101781.13;4952362;28;20051;-78
2023/10/04 00:04:31;;;;;;;;;;;;;;;9.07;100.00;101787.75;4951844;28;20054;-79
2023/10/04 00:10:24;;;;;;;40.28;38.28;;;;;;;9.11;100.00;101777.66;4953503;29;20127;-78
2023/10/04 00:12:53;;;;;;;47.22;45.13;;;;;;;9.23;100.00;101786.88;4953646;28;20056;-79
2023/10/04 00:15:32;;;;;;;37.10;35.30;;;;;;;9.09;100.00;101775.16;4952439;28;20435;-77
2023/10/04 00:18:11;;;;;;;52.83;50.53;;;;;;;9.09;100.00;101772.50;4943852;28;20134;-77
2023/10/04 00:20:55;;;;;;;45.53;43.53;;;;;;;8.85;100.00;101769.91;4939684;29;20055;-77
2023/10/04 00:23:22;;;;;;;49.13;46.72;;;;;;;8.62;100.00;101760.03;4935854;29;20106;-78
2023/10/04 00:25:49;;;;;;;45.28;43.08;;;;;;;8.88;100.00;101761.63;4945755;29;20055;-79
2023/10/04 00:28:25;;;;;;;47.50;45.10;;;;;;;8.76;100.00;101755.84;4952427;28;20439;-79
2023/10/04 00:30:55;;;;;;;36.33;34.38;;;;;;;8.71;100.00;101752.88;4947397;28;20051;-78
2023/10/04 00:33:26;;;;;;;43.05;40.97;;;;;;;8.76;100.00;101753.22;4951933;28;20055;-79
2023/10/04 00:35:56;;;;;;;47.33;44.83;;;;;;;8.73;100.00;101750.91;4949617;28;20047;-78
2023/10/04 00:38:23;;;;;;;52.20;49.70;;;;;;;8.66;100.00;101753.41;4955695;28;20053;-78
2023/10/04 00:40:51;;;;;;;50.47;48.08;;;;;;;8.48;100.00;101753.56;4950638;28;20055;-77
2023/10/04 00:43:19;;;;;;;36.00;34.20;;;;;;;8.53;100.00;101750.41;4949689;29;20052;-77
2023/10/04 00:45:48;;;;;;;35.30;33.17;;;;;;;8.38;100.00;101742.34;4957768;28;20051;-78
2023/10/04 00:48:18;;;;;;;35.10;33.20;;;;;;;8.06;100.00;101740.47;4953138;29;20512;-77
2023/10/04 00:51:08;;;;;;;32.30;30.60;;;;;;;8.22;100.00;101744.94;4959934;28;20058;-78
2023/10/04 00:54:01;;;;;;;30.13;28.52;;;;;;;8.22;100.00;101747.59;4965477;28;20458;-78
2023/10/04 00:56:28;;;;;;;47.05;33.90;;;;;;;8.18;100.00;101743.63;4956103;28;20053;-78
2023/10/04 00:58:59;;;;;;;40.47;38.38;;;;;;;8.32;100.00;101740.34;4949658;29;20062;-78
2023/10/04 01:01:49;;;;;;;37.35;35.55;;;;;;;8.25;100.00;101742.78;4937629;29;20055;-78
2023/10/04 01:04:19;;;;;;;37.97;36.13;;;;;;;8.37;100.00;101740.66;4953439;29;20491;-79
2023/10/04 01:06:59;;;;;;;30.23;28.63;;;;;;;8.43;100.00;101740.00;4951987;29;20051;-79
2023/10/04 01:09:32;;;;;;;29.85;28.25;;;;;;;8.28;100.00;101741.63;4952098;29;20587;-77
2023/10/04 01:12:04;;;;;;;36.70;34.33;;;;;;;8.31;100.00;101741.31;4949494;28;20044;-78
2023/10/04 01:14:37;;;;;;;37.42;35.63;;;;;;;8.08;100.00;101735.00;4955257;28;20055;-78
2023/10/04 01:17:10;;;;;;;32.08;30.38;;;;;;;8.14;100.00;101737.00;4946307;28;20518;-78
2023/10/04 01:19:37;;;;;;;33.08;31.42;;;;;;;8.02;100.00;101741.81;4951754;29;20565;-77
2023/10/04 01:22:12;;;;;;;37.95;35.78;;;;;;;7.89;100.00;101734.34;4955396;29;20055;-77
2023/10/04 01:24:41;;;;;;;30.98;29.38;;;;;;;7.77;100.00;101746.22;4954887;28;20057;-78
2023/10/04 01:27:08;;;;;;;35.17;33.38;;;;;;;8.08;100.00;101737.66;4950766;28;20493;-78
2023/10/04 01:29:38;;;;;;;35.45;33.55;;;;;;;7.50;100.00;101729.66;4952840;28;20400;-78
2023/10/04 01:32:08;;;;;;;32.33;30.33;;;;;;;7.67;100.00;101740.25;4949773;28;20055;-78
2023/10/04 01:35:11;;;;;;;32.33;30.60;;;;;;;7.85;100.00;101740.94;4951587;28;20521;-79
2023/10/04 01:37:59;;;;;;;36.92;35.03;;;;;;;7.78;100.00;101735.50;4951807;29;20055;-78
2023/10/04 01:40:28;;;;;;;30.45;28.85;;;;;;;7.35;100.00;101741.78;4954867;28;20110;-77
2023/10/04 01:43:32;;;;;;;28.55;26.80;;;;;;;7.85;100.00;101738.31;4947114;29;20066;-79
2023/10/04 01:49:38;;;;;;;37.38;35.38;;;;;;;7.75;100.00;101729.69;4952181;29;20058;-78
2023/10/04 01:52:05;;;;;;;30.70;28.90;;;;;;;7.78;100.00;101739.97;4955512;28;20107;-79
2023/10/04 01:55:04;;;;;;;28.27;26.67;;;;;;;7.75;100.00;101733.16;4941587;29;20138;-78
2023/10/04 01:57:32;;;;;;;46.05;43.72;;;;;;;7.41;100.00;101740.34;4940011;29;20062;-79
2023/10/04 01:59:58;;;;;;;33.30;31.55;;;;;;;7.29;100.00;101732.72;4948996;29;20058;-78
2023/10/04 02:02:25;;;;;;;36.22;34.22;;;;;;;7.37;100.00;101736.38;4955713;28;20061;-77
2023/10/04 02:04:53;;;;;;;34.30;32.60;;;;;;;7.22;100.00;101741.41;4953765;28;20049;-77
2023/10/04 02:07:23;;;;;;;38.58;36.58;;;;;;;7.36;100.00;101732.91;4949124;29;20134;-78
2023/10/04 02:09:51;;;;;;;37.13;35.33;;;;;;;7.33;100.00;101743.78;4955365;28;20575;-78
2023/10/04 02:16:05;;;;;;;37.67;35.78;;;;;;;7.54;100.00;101740.72;4974708;28;20047;-79
2023/10/04 02:18:33;;;;;;;33.33;31.67;;;;;;;7.58;100.00;101740.22;4946838;28;20057;-78
2023/10/04 02:21:12;;;;;;;31.45;29.95;;;;;;;7.61;100.00;101733.78;4948304;29;20558;-79
2023/10/04 02:23:49;;;;;;;25.75;24.38;;;;;;;7.31;100.00;101740.47;4936110;29;20056;-78
2023/10/04 02:26:16;;;;;;;31.08;29.58;;;;;;;7.48;100.00;101741.38;4953698;29;20054;-78
2023/10/04 02:28:45;;;;;;;34.88;32.30;;;;;;;7.21;100.00;101734.50;4952726;28;20065;-79
2023/10/04 02:31:14;;;;;;;32.78;30.85;;;;;;;7.20;100.00;101738.09;4951522;28;20055;-78
2023/10/04 02:34:10;;;;;;;31.05;29.45;;;;;;;7.37;100.00;101731.91;4948599;28;20526;-78
2023/10/04 02:36:38;;;;;;;32.20;30.63;;;;;;;7.43;100.00;101731.25;4959252;28;20050;-77
2023/10/04 02:39:10;;;;;;;37.72;35.83;;;;;;;7.37;100.00;101737.19;4954614;28;20047;-79
2023/10/04 02:41:40;;;;;;;;;;;;;;;7.26;100.00;101737.47;4938056;29;20055;-79
2023/10/04 02:44:08;;;;;;;31.73;29.65;;;;;;;7.09;100.00;101726.84;4961533;28;19922;-78
2023/10/04 02:46:52;;;;;;;27.63;26.20;;;;;;;7.28;100.00;101733.69;4973831;28;20051;-78
2023/10/04 02:49:20;;;;;;;28.73;26.25;;;;;;;7.09;100.00;101731.31;4947608;29;20059;-77
2023/10/04 02:51:47;;;;;;;25.50;24.10;;;;;;;7.38;100.00;101738.00;4949941;28;20055;-78
2023/10/04 02:54:16;;;;;;;26.35;25.05;;;;;;;7.28;100.00;101736.31;4945349;28;20047;-78
2023/10/04 02:57:03;;;;;;;44.17;42.03;;;;;;;6.70;100.00;101739.66;4944024;28;20055;-77
2023/10/04 02:59:32;;;;;;;34.45;32.85;;;;;;;6.53;100.00;101733.44;4946109;28;20444;-78
2023/10/04 03:02:04;;;;;;;26.27;25.00;;;;;;;6.74;100.00;101740.19;4939332;29;20102;-77
2023/10/04 03:04:31;;;;;;;28.65;26.92;;;;;;;7.02;100.00;101748.75;4937455;29;20439;-77
2023/10/04 03:06:58;;;;;;;63.45;58.28;;;;;;;7.10;100.00;101746.97;4946568;28;20547;-77
2023/10/04 03:09:25;;;;;;;30.40;28.80;;;;;;;6.92;100.00;101756.78;4945322;29;20040;-78
2023/10/04 03:11:59;;;;;;;34.40;32.50;;;;;;;6.97;100.00;101749.22;4948331;29;20047;-77
2023/10/04 03:14:26;;;;;;;30.38;28.77;;;;;;;7.07;100.00;101746.47;4948983;28;20047;-77
2023/10/04 03:16:52;;;;;;;35.20;33.10;;;;;;;7.19;100.00;101739.09;4940913;28;20607;-77
2023/10/04 03:19:36;;;;;;;34.92;33.03;;;;;;;7.13;100.00;101737.91;4942378;28;20047;-77
2023/10/04 03:22:10;;;;;;;28.42;26.92;;;;;;;6.74;100.00;101740.19;4939990;28;20047;-78
2023/10/04 03:24:37;;;;;;;35.08;33.17;;;;;;;6.63;100.00;101747.38;4941284;29;20500;-77
2023/10/04 03:27:05;;;;;;;28.58;27.08;;;;;;;6.37;100.00;101739.44;4947916;29;20051;-77
2023/10/04 03:29:32;;;;;;;36.47;34.40;;;;;;;6.73;100.00;101741.16;4947244;28;20047;-78
2023/10/04 03:32:03;;;;;;;39.15;37.25;;;;;;;6.88;100.00;101748.34;4959311;28;20047;-78
2023/10/04 03:34:40;;;;;;;38.05;35.67;;;;;;;6.89;100.00;101747.38;4953009;29;20400;-78
2023/10/04 03:37:50;;;;;;;61.65;58.75;;;;;;;7.09;100.00;101742.69;4953595;29;20057;-77
2023/10/04 03:40:17;;;;;;;64.53;61.53;;;;;;;7.09;100.00;101742.69;4941664;29;20119;-78
2023/10/04 03:42:47;;;;;;;64.28;61.58;;;;;;;6.99;100.00;101742.00;4951284;28;20059;-79
2023/10/04 03:45:25;;;;;;;45.30;42.70;;;;;;;6.98;100.00;101750.88;4960430;28;20089;-79
2023/10/04 03:47:52;;;;;;;50.22;47.25;;;;;;;6.61;100.00;101736.13;4953531;28;20534;-79
2023/10/04 03:50:46;;;;;;;76.75;72.25;;;;;;;6.77;100.00;101743.34;4954361;28;20054;-79
2023/10/04 03:53:16;;;;;;;69.82;64.13;;;;;;;6.67;100.00;101745.25;4942134;29;20455;-78
2023/10/04 03:55:43;;;;;;;76.85;70.95;;;;;;;6.67;100.00;101744.44;4950966;28;20110;-77
2023/10/04 03:58:11;;;;;;;79.78;73.88;;;;;;;6.79;100.00;101744.00;4955559;28;20050;-78
2023/10/04 04:00:39;;;;;;;51.33;47.92;;;;;;;6.68;100.00;101738.16;4950580;28;20062;-77
2023/10/04 04:03:06;;;;;;;48.50;45.40;;;;;;;6.60;100.00;101739.78;4957765;28;20114;-78
2023/10/04 04:05:38;;;;;;;52.65;49.75;;;;;;;6.27;100.00;101746.63;4944244;28;20149;-78
2023/10/04 04:08:07;;;;;;;52.40;49.10;;;;;;;6.73;100.00;101736.72;4940088;28;20099;-77
2023/10/04 04:10:34;;;;;;;57.15;53.65;;;;;;;6.86;100.00;101737.09;4948932;28;20047;-77
2023/10/04 04:13:01;;;;;;;50.72;47.38;;;;;;;6.58;100.00;101733.81;4951047;28;20051;-77
2023/10/04 04:15:33;;;;;;;36.42;33.83;;;;;;;6.78;100.00;101730.97;4949600;28;20487;-77
2023/10/04 04:18:00;;;;;;;27.98;25.98;;;;;;;6.94;100.00;101735.53;4946448;28;20055;-78
2023/10/04 04:20:30;;;;;;;24.70;23.35;;;;;;;6.88;100.00;101731.69;4948936;28;20047;-77
2023/10/04 04:22:57;;;;;;;27.15;25.65;;;;;;;6.96;100.00;101733.53;4943952;28;20048;-78
2023/10/04 04:25:26;;;;;;;26.20;24.73;;;;;;;6.89;100.00;101734.16;4944189;28;20523;-77
2023/10/04 04:27:56;;;;;;;24.80;22.42;;;;;;;6.80;100.00;101734.28;4953467;28;20050;-77
2023/10/04 04:30:28;;;;;;;32.10;22.48;;;;;;;6.71;100.00;101740.50;4954950;28;20451;-77
2023/10/04 04:32:56;;;;;;;27.17;25.47;;;;;;;6.75;100.00;101732.13;4956789;28;20138;-77
2023/10/04 04:35:34;;;;;;;29.33;27.55;;;;;;;7.04;100.00;101746.78;4920302;28;20315;-77
2023/10/04 04:38:11;;;;;;;26.50;25.10;;;;;;;7.00;100.00;101745.47;4955218;28;20062;-78
2023/10/04 04:40:44;;;;;;;27.55;24.95;;;;;;;7.09;100.00;101747.16;4956330;28;20130;-78
2023/10/04 04:43:25;;;;;;;23.67;22.27;;;;;;;7.15;100.00;101751.81;4959218;28;20078;-78
2023/10/04 04:45:53;;;;;;;23.27;21.98;;;;;;;8.35;100.00;101749.75;4952241;28;20058;-78
2023/10/04 04:48:23;;;;;;;23.33;21.65;;;;;;;7.65;100.00;101758.09;4951774;28;20058;-77
2023/10/04 04:50:52;;;;;;;20.55;19.35;;;;;;;7.55;100.00;101759.06;4954078;29;20102;-78
2023/10/04 04:53:22;;;;;;;23.00;21.60;;;;;;;7.66;100.00;101762.41;4951621;28;20074;-78
2023/10/04 04:55:50;;;;;;;22.80;21.40;;;;;;;7.64;100.00;101761.72;4952869;29;20127;-81
2023/10/04 04:58:19;;;;;;;25.45;23.80;;;;;;;7.90;100.00;101759.00;4950310;29;20065;-80
2023/10/04 05:00:49;;;;;;;26.50;24.90;;;;;;;8.20;100.00;101755.72;4944172;28;20482;-80
2023/10/04 05:03:17;;;;;;;25.92;24.42;;;;;;;8.27;100.00;101762.00;4954022;28;20055;-81
2023/10/04 05:05:44;;;;;;;24.77;23.05;;;;;;;8.43;100.00;101766.47;4942929;29;20043;-80
2023/10/04 05:08:11;;;;;;;22.50;21.20;;;;;;;8.63;100.00;101759.03;4955835;28;20463;-79
2023/10/04 05:10:38;;;;;;;23.85;22.35;;;;;;;8.78;100.00;101759.19;4952950;28;20454;-80
2023/10/04 05:13:08;;;;;;;23.42;21.88;;;;;;;8.93;100.00;101765.44;4955721;28;20048;-82
2023/10/04 05:15:38;;;;;;;24.63;22.80;;;;;;;9.06;100.00;101769.38;4949512;29;20135;-79
2023/10/04 05:18:15;;;;;;;22.58;21.08;;;;;;;9.37;100.00;101770.25;4950510;29;20079;-79
2023/10/04 05:20:43;;;;;;;24.33;22.83;;;;;;;9.64;100.00;101776.91;4950155;28;20472;-79
2023/10/04 05:23:10;;;;;;;22.65;21.15;;;;;;;9.80;100.00;101768.06;4953839;29;20083;-80
2023/10/04 05:25:37;;;;;;;22.85;21.50;;;;;;;10.01;100.00;101778.00;4950649;29;20047;-80
2023/10/04 05:28:09;;;;;;;23.80;22.30;;;;;;;10.23;100.00;101771.06;4952697;28;20055;-81
2023/10/04 05:30:37;;;;;;;25.65;23.80;;;;;;;10.24;100.00;101772.72;4955434;29;20047;-80
2023/10/04 05:33:06;;;;;;;25.02;23.73;;;;;;;10.47;100.00;101766.59;4953030;29;20051;-81
2023/10/04 05:35:33;;;;;;;27.00;25.55;;;;;;;17.52;100.00;101766.94;4951467;29;20062;-78
2023/10/04 05:38:00;;;;;;;26.13;24.63;;;;;;;18.87;100.00;101753.91;4950367;29;20057;-79
2023/10/04 05:40:27;;;;;;;23.38;22.08;;;;;;;19.65;100.00;101756.03;4947216;29;20062;-77
2023/10/04 05:42:55;;;;;;;23.92;22.63;;;;;;;20.17;100.00;101755.06;4951208;28;20043;-82
2023/10/04 05:45:25;;;;;;;24.20;22.90;;;;;;;20.74;100.00;101754.88;4952814;29;20126;-82
2023/10/04 05:47:52;;;;;;;25.48;24.02;;;;;;;21.10;100.00;101759.94;4945066;28;20569;-81
2023/10/04 05:50:21;;;;;;;30.63;27.63;;;;;;;15.35;100.00;101772.81;4950239;28;20047;-77
2023/10/04 05:52:48;;;;;;;31.58;29.52;;;;;;;12.95;100.00;101768.19;4951303;28;20082;-77
2023/10/04 05:55:16;;;;;;;42.72;28.73;;;;;;;12.43;100.00;101788.06;4949620;29;20051;-78
2023/10/04 05:57:44;;;;;;;45.38;29.77;;;;;;;12.27;100.00;101793.69;4951139;29;20055;-78
2023/10/04 06:00:23;;;;;;;31.85;28.88;;;;;;;12.37;100.00;101796.84;4949125;29;20503;-77
2023/10/04 06:02:53;;;;;;;37.75;32.53;;;;;;;12.55;100.00;101793.72;4949904;29;20581;-78
2023/10/04 06:05:22;;;;;;;31.60;29.08;;;;;;;12.60;100.00;101794.78;4944708;28;20043;-79
2023/10/04 06:07:49;;;;;;;28.70;26.40;;;;;;;12.70;100.00;101801.63;4949075;28;20051;-78
2023/10/04 06:10:17;;;;;;;79.20;29.42;;;;;;;12.64;100.00;101802.41;4947547;28;20050;-77
2023/10/04 06:12:44;;;;;;;31.92;29.13;;;;;;;12.91;100.00;101800.75;4949270;29;20067;-77
2023/10/04 06:15:13;;;;;;;27.55;25.83;;;;;;;13.18;100.00;101791.88;4948767;28;20047;-78
2023/10/04 06:17:43;;;;;;;28.52;26.63;;;;;;;13.40;100.00;101789.97;4947345;28;20075;-80
2023/10/04 06:20:28;;;;;;;27.58;25.88;;;;;;;13.47;100.00;101792.69;4945775;29;20055;-79
2023/10/04 06:22:57;;;;;;;26.25;24.35;;;;;;;13.59;100.00;101791.09;4939024;29;20051;-77
2023/10/04 06:25:25;;;;;;;27.90;25.40;;;;;;;14.09;100.00;101788.97;4937780;29;20264;-78
2023/10/04 06:27:53;;;;;;;36.53;28.70;;;;;;;14.00;100.00;101782.16;4945250;28;20072;-78
2023/10/04 06:30:22;;;;;;;60.63;25.30;;;;;;;14.19;100.00;101785.88;4942044;29;20484;-79
2023/10/04 06:32:50;;;;;;;25.23;23.52;;;;;;;14.27;100.00;101787.53;4948931;28;20508;-80
2023/10/04 06:35:18;;;;;;;25.27;23.58;;;;;;;14.62;100.00;101782.88;4948808;28;20476;-79
2023/10/04 06:37:45;;;;;;;35.60;22.98;;;;;;;14.75;100.00;101779.34;4947687;28;20514;-78
2023/10/04 06:40:16;;;;;;;24.27;22.67;;;;;;;15.00;100.00;101783.00;4943374;29;20123;-78
2023/10/04 06:42:47;;;;;;;25.95;24.25;;;;;;;15.26;100.00;101774.09;4943269;29;20051;-78
2023/10/04 06:45:14;;;;;;;26.15;24.45;;;;;;;15.66;100.00;101775.78;4946343;28;20085;-79
2023/10/04 06:47:44;;;;;;;25.13;23.52;;;;;;;15.86;100.00;101771.16;4947775;28;20074;-79
2023/10/04 06:50:15;;;;;;;25.73;23.92;;;;;;;16.00;100.00;101761.97;4945674;29;20106;-79
2023/10/04 06:52:44;;;;;;;25.67;23.98;;;;;;;16.43;100.00;101768.47;4932700;29;20051;-79
2023/10/04 06:55:11;;;;;;;29.63;26.77;;;;;;;16.68;100.00;101761.25;4952246;28;20047;-79
2023/10/04 06:57:40;;;;;;;28.65;26.85;;;;;;;17.20;100.00;101763.63;4945811;28;20492;-80
2023/10/04 07:00:14;;;;;;;26.02;24.42;;;;;;;17.33;100.00;101766.13;4942503;28;20058;-79
2023/10/04 07:02:43;;;;;;;25.85;24.10;;;;;;;17.50;100.00;101766.34;4948856;28;20050;-80
2023/10/04 07:05:10;;;;;;;32.30;28.88;;;;;;;17.24;100.00;101759.41;4947675;28;20138;-81
2023/10/04 07:07:37;;;;;;;46.80;41.22;;;;;;;17.92;100.00;101755.66;4948681;28;20138;-79
2023/10/04 07:10:08;;;;;;;49.75;44.55;;;;;;;18.02;100.00;101761.28;4948131;28;20051;-78
2023/10/04 07:12:37;;;;;;;24.92;23.23;;;;;;;17.92;100.00;101770.97;4947323;29;20055;-77
2023/10/04 07:15:06;;;;;;;38.60;23.75;;;;;;;18.60;100.00;101762.41;4947887;28;20059;-80
2023/10/04 07:17:33;;;;;;;29.55;27.45;;;;;;;19.13;100.00;101757.97;4947745;29;20040;-80
2023/10/04 07:20:00;;;;;;;27.15;25.20;;;;;;;19.53;100.00;101760.63;4948833;29;20503;-80
2023/10/04 07:22:32;;;;;;;26.30;24.50;;;;;;;19.36;100.00;101755.19;4949539;28;20051;-79
2023/10/04 07:24:59;;;;;;;34.92;24.50;;;;;;;19.43;100.00;101758.56;4949335;28;20455;-76
2023/10/04 07:27:27;;;;;;;25.95;24.35;;;;;;;19.72;100.00;101761.28;4946083;28;20137;-77
2023/10/04 07:29:54;;;;;;;26.55;24.85;;;;;;;20.13;100.00;101768.22;4945908;28;20059;-78
2023/10/04 07:32:21;;;;;;;24.17;22.63;;;;;;;20.29;100.00;101757.66;4948930;28;20070;-78
2023/10/04 07:34:48;;;;;;;25.20;23.60;;;;;;;20.32;100.00;101760.69;4950706;28;20502;-78
2023/10/04 07:37:18;;;;;;;26.45;24.88;;;;;;;20.72;100.00;101761.56;4947956;29;20046;-78
2023/10/04 07:39:45;;;;;;;24.50;23.20;;;;;;;20.94;100.00;101754.34;4948902;28;20051;-76
2023/10/04 07:42:12;;;;;;;21.85;20.55;;;;;;;21.50;100.00;101759.63;4950193;29;20165;-76
2023/10/04 07:44:40;;;;;;;28.00;26.40;;;;;;;22.10;100.00;101761.28;4947844;28;20134;-79
2023/10/04 07:47:07;;;;;;;28.05;26.55;;;;;;;22.57;100.00;101757.88;4947773;29;20506;-77
2023/10/04 07:49:34;;;;;;;28.38;26.83;;;;;;;22.78;100.00;101757.97;4945372;28;20109;-79
2023/10/04 07:52:03;;;;;;;28.38;26.10;;;;;;;22.48;100.00;101754.03;4948812;28;20401;-77
2023/10/04 07:54:31;;;;;;;27.67;26.17;;;;;;;22.66;100.00;101746.53;4947233;29;20047;-77
2023/10/04 07:56:58;;;;;;;27.85;26.30;;;;;;;22.78;100.00;101753.38;4946904;28;20591;-77
2023/10/04 07:59:26;;;;;;;27.25;25.63;;;;;;;22.98;100.00;101752.69;4948742;28;20047;-79
2023/10/04 08:01:55;;;;;;;27.15;25.55;;;;;;;23.40;100.00;101740.13;4947888;28;20047;-77
2023/10/04 08:04:21;;;;;;;25.00;23.50;;;;;;;22.41;100.00;101745.31;4944027;29;20043;-77
2023/10/04 08:06:52;;;;;;;27.77;26.13;;;;;;;22.64;100.00;101750.34;4940896;28;20047;-76
2023/10/04 08:09:21;;;;;;;27.10;25.40;;;;;;;23.82;100.00;101744.56;4944294;28;20059;-77
2023/10/04 08:11:50;;;;;;;27.58;25.45;;;;;;;24.82;100.00;101750.16;4946245;28;20057;-77
2023/10/04 08:14:20;;;;;;;25.63;24.02;;;;;;;22.83;100.00;101752.59;4941714;28;20052;-78
2023/10/04 08:16:49;;;;;;;28.45;26.50;;;;;;;22.00;100.00;101757.66;4944258;28;20051;-80
2023/10/04 08:19:17;;;;;;;26.50;25.00;;;;;;;21.55;100.00;101750.75;4950539;28;20051;-81
2023/10/04 08:21:45;;;;;;;28.55;26.83;;;;;;;21.79;100.00;101757.50;4950852;28;20055;-80
2023/10/04 08:24:11;;;;;;;26.67;24.77;;;;;;;21.73;100.00;101753.09;4951815;28;20499;-79
2023/10/04 08:26:38;;;;;;;26.15;24.45;;;;;;;21.82;100.00;101751.56;4955773;28;20512;-78
2023/10/04 08:29:06;;;;;;;27.67;26.08;;;;;;;21.72;100.00;101754.16;4941686;28;20048;-79
2023/10/04 08:31:34;;;;;;;27.98;26.38;;;;;;;21.79;100.00;101753.97;4941978;28;20047;-78
2023/10/04 08:34:00;;;;;;;28.15;26.55;;;;;;;21.98;100.00;101743.59;4948290;28;20059;-79
2023/10/04 08:36:29;;;;;;;26.05;24.55;;;;;;;23.08;100.00;101741.09;4946868;28;20051;-79
2023/10/04 08:38:56;;;;;;;23.08;21.67;;;;;;;22.77;100.00;101737.41;4940929;28;20055;-79
2023/10/04 08:41:23;;;;;;;25.05;23.48;;;;;;;23.35;100.00;101740.91;4951161;28;20059;-79
2023/10/04 08:43:51;;;;;;;24.75;23.15;;;;;;;23.16;100.00;101737.06;4953978;28;20050;-79
2023/10/04 08:46:23;;;;;;;26.33;24.63;;;;;;;23.12;100.00;101736.78;4953928;28;20042;-80
2023/10/04 08:48:53;;;;;;;;;;;;;;;23.25;100.00;101730.84;4948174;28;20126;-79
2023/10/04 08:51:28;;;;;;;26.02;24.17;;;;;;;23.41;100.00;101736.31;4948612;28;19922;-79
2023/10/04 08:54:08;;;;;;;29.63;28.02;;;;;;;22.79;100.00;101730.66;4944734;28;20059;-78
2023/10/04 08:56:43;;;;;;;29.90;28.20;;;;;;;24.18;92.77;101724.47;4942473;28;20059;-76
2023/10/04 08:59:11;;;;;;;29.65;27.45;;;;;;;23.93;95.03;101727.19;4948219;28;20106;-77
2023/10/04 09:01:41;;;;;;;27.25;25.45;;;;;;;22.86;100.00;101736.63;4943957;28;20047;-79
2023/10/04 09:04:10;;;;;;;27.33;25.52;;;;;;;24.24;94.53;101733.44;4951980;28;20091;-77
2023/10/04 09:06:38;;;;;;;28.67;26.90;;;;;;;24.20;93.62;101733.16;4945095;28;20052;-77
2023/10/04 09:09:11;;;;;;;28.27;26.17;;;;;;;25.82;75.82;101729.28;4947862;28;20051;-79
2023/10/04 09:11:38;;;;;;;25.63;23.83;;;;;;;25.74;78.38;101724.41;4944796;28;20046;-78
2023/10/04 09:14:06;;;;;;;28.50;26.80;;;;;;;23.76;92.20;101733.69;4947867;28;20051;-79
2023/10/04 09:16:32;;;;;;;29.52;27.85;;;;;;;24.03;92.26;101739.97;4946797;28;20079;-79
2023/10/04 09:19:06;;;;;;;28.38;26.77;;;;;;;25.00;79.92;101727.00;4949757;28;20056;-79
2023/10/04 09:21:36;;;;;;;28.42;26.73;;;;;;;23.98;80.47;101735.34;4950891;28;20058;-78
2023/10/04 09:24:10;;;;;;;28.33;26.30;;;;;;;25.45;81.34;101725.16;4950033;29;20127;-77
2023/10/04 09:26:38;;;;;;;26.92;25.23;;;;;;;25.18;79.16;101728.31;4950470;28;20551;-77
2023/10/04 09:29:06;;;;;;;30.08;28.17;;;;;;;25.34;77.78;101735.28;4945049;28;20056;-78
2023/10/04 09:31:50;;;;;;;29.05;26.90;;;;;;;26.40;68.86;101733.94;4945142;29;20680;-77
2023/10/04 09:34:20;;;;;;;28.20;26.50;;;;;;;26.18;65.98;101731.72;4947822;28;20055;-79
2023/10/04 09:36:47;;;;;;;31.45;28.80;;;;;;;24.53;81.06;101732.88;4951431;28;20048;-79
2023/10/04 09:39:23;;;;;;;29.15;27.35;;;;;;;25.75;69.18;101728.75;4944107;28;20059;-77
2023/10/04 09:41:51;;;;;;;27.30;25.50;;;;;;;25.15;75.11;101730.78;4943549;28;20054;-77
2023/10/04 09:44:23;;;;;;;29.00;27.15;;;;;;;24.79;72.08;101720.03;4944421;28;20047;-77
2023/10/04 09:46:54;;;;;;;28.05;26.33;;;;;;;25.80;76.32;101715.91;4941393;28;20054;-77
2023/10/04 09:49:22;;;;;;;27.35;25.10;;;;;;;25.95;58.44;101712.28;4945531;28;20059;-77
2023/10/04 09:51:50;;;;;;;27.52;25.42;;;;;;;25.95;63.93;101711.50;4947490;28;20047;-77
2023/10/04 09:54:18;;;;;;;27.23;25.13;;;;;;;25.60;67.41;101710.66;4960294;28;20481;-78
2023/10/04 09:56:47;;;;;;;26.95;25.15;;;;;;;26.89;63.66;101714.59;4957409;28;20044;-79
2023/10/04 09:59:19;;;;;;;31.08;29.27;;;;;;;27.72;49.72;101708.84;4951828;28;20086;-80
2023/10/04 10:01:52;;;;;;;28.00;26.20;;;;;;;26.80;59.88;101707.38;4950547;28;20526;-79
2023/10/04 10:04:24;;;;;;;30.52;28.63;;;;;;;26.82;50.67;101711.41;4950424;29;20565;-79
2023/10/04 10:07:00;;;;;;;28.50;26.80;;;;;;;25.50;56.47;101706.09;4944100;28;20079;-76
2023/10/04 10:09:32;;;;;;;28.73;26.92;;;;;;;25.77;60.66;101704.81;4942004;28;20047;-75
2023/10/04 10:12:00;;;;;;;29.77;27.97;;;;;;;25.86;59.38;101694.16;4943598;28;20059;-77
2023/10/04 10:14:28;;;;;;;28.23;26.42;;;;;;;26.88;54.58;101688.44;4947092;29;20047;-78
2023/10/04 10:16:56;;;;;;;29.52;27.67;;;;;;;27.56;47.62;101681.75;4941882;28;20109;-77
2023/10/04 10:19:26;;;;;;;27.08;25.27;;;;;;;25.67;59.18;101689.38;4941827;29;20409;-76
2023/10/04 10:22:11;;;;;;;29.83;27.27;;;;;;;26.36;60.35;101681.97;4947589;29;20043;-76
2023/10/04 10:24:48;;;;;;;27.95;26.35;;;;;;;26.00;58.08;101679.59;4948204;28;20499;-77
2023/10/04 10:27:20;;;;;;;30.42;28.55;;;;;;;25.43;62.17;101672.16;4950599;29;20079;-77
2023/10/04 10:29:48;;;;;;;27.17;25.37;;;;;;;25.05;67.72;101672.66;4943453;29;20097;-78
2023/10/04 10:32:17;;;;;;;33.92;31.38;;;;;;;26.53;59.27;101673.34;4948140;29;20444;-77
2023/10/04 10:34:45;;;;;;;26.70;25.10;;;;;;;26.73;55.11;101653.22;4951148;29;20077;-76
2023/10/04 10:37:22;;;;;;;27.70;25.98;;;;;;;26.77;54.01;101640.63;4942066;28;20479;-75
2023/10/04 10:39:52;;;;;;;26.70;25.08;;;;;;;25.86;59.77;101653.34;4944311;29;20475;-77
2023/10/04 10:42:19;;;;;;;27.08;25.48;;;;;;;28.48;46.58;101638.41;4949950;28;20048;-76
2023/10/04 10:44:47;;;;;;;23.10;21.50;;;;;;;29.61;44.04;101642.97;4946696;29;20055;-75
2023/10/04 10:47:23;;;;;;;25.75;23.88;;;;;;;26.83;54.13;101635.94;4947846;28;20426;-78
2023/10/04 10:49:58;;;;;;;24.00;22.60;;;;;;;28.47;50.53;101634.88;4940311;29;20051;-78
2023/10/04 10:52:33;;;;;;;29.02;27.33;;;;;;;26.03;59.61;101643.66;4950628;29;20055;-79
2023/10/04 10:55:05;;;;;;;26.98;25.38;;;;;;;28.87;46.97;101623.38;4950177;28;20419;-80
2023/10/04 10:57:33;;;;;;;26.63;25.02;;;;;;;27.79;49.76;101635.59;4950388;29;20514;-80
2023/10/04 11:00:11;;;;;;;24.70;23.20;;;;;;;26.60;55.00;101624.78;4944747;28;20079;-79
2023/10/04 11:02:38;;;;;;;26.73;25.02;;;;;;;26.06;57.42;101623.22;4944220;29;20091;-77
2023/10/04 11:05:07;;;;;;;25.17;23.65;;;;;;;26.88;51.72;101627.69;4943574;29;20062;-79
2023/10/04 11:07:34;;;;;;;29.05;26.23;;;;;;;27.63;53.41;101611.28;4939953;29;20047;-77
2023/10/04 11:10:03;;;;;;;27.05;25.40;;;;;;;29.84;44.98;101615.56;4942515;28;20496;-78
2023/10/04 11:12:34;;;;;;;28.52;26.73;;;;;;;28.39;49.26;101615.63;4939341;29;20055;-76
2023/10/04 11:15:01;;;;;;;28.25;26.45;;;;;;;26.70;50.58;101612.94;4944411;28;20056;-76
2023/10/04 11:17:29;;;;;;;30.35;28.27;;;;;;;29.97;44.02;101609.16;4946777;28;20519;-76
2023/10/04 11:19:56;;;;;;;29.88;27.88;;;;;;;29.08;42.75;101610.88;4946472;28;20060;-77
2023/10/04 11:22:25;;;;;;;27.90;26.20;;;;;;;27.39;48.38;101614.13;4948954;28;20054;-76
2023/10/04 11:24:53;;;;;;;26.50;24.80;;;;;;;30.55;40.30;101610.81;4949879;28;20178;-76
2023/10/04 11:27:23;;;;;;;30.05;28.35;;;;;;;30.03;42.90;101607.91;4948789;28;20495;-78
2023/10/04 11:29:52;;;;;;;31.55;29.75;;;;;;;29.80;39.98;101598.94;4946250;29;20061;-77
2023/10/04 11:32:19;;;;;;;28.88;27.20;;;;;;;31.13;35.69;101599.75;4945797;28;20126;-76
2023/10/04 11:34:49;;;;;;;34.50;32.50;;;;;;;30.95;37.02;101596.19;4946661;29;20051;-77